createdAt,value
2018-07-23T00:01:32.359Z,6.47
2018-07-23T00:04:01.447Z,5.63
2018-07-23T00:06:30.539Z,6.17
2018-07-23T00:08:59.655Z,7.03
2018-07-23T00:11:28.711Z,6.27
2018-07-23T00:13:57.795Z,6.27
2018-07-23T00:16:26.897Z,6.40
2018-07-23T00:18:55.983Z,6.57
2018-07-23T00:21:25.035Z,6.20
2018-07-23T00:23:54.116Z,6.63
2018-07-23T00:26:23.189Z,5.73
2018-07-23T00:28:52.267Z,5.93
2018-07-23T00:31:21.383Z,7.20
2018-07-23T00:33:50.437Z,5.80
2018-07-23T00:36:19.536Z,5.77
2018-07-23T00:38:48.649Z,6.33
2018-07-23T00:41:17.714Z,5.53
2018-07-23T00:43:46.844Z,5.73
2018-07-23T00:46:15.924Z,5.53
2018-07-23T00:48:45.016Z,5.87
2018-07-23T00:51:14.191Z,5.67
2018-07-23T00:53:43.263Z,5.47
2018-07-23T00:56:12.347Z,5.77
2018-07-23T00:58:41.436Z,5.77
2018-07-23T01:01:10.528Z,5.40
2018-07-23T01:03:39.623Z,6.37
2018-07-23T01:06:08.692Z,5.37
2018-07-23T01:08:37.886Z,5.77
2018-07-23T01:11:07.055Z,6.13
2018-07-23T01:13:36.157Z,5.33
2018-07-23T01:16:05.222Z,4.70
2018-07-23T01:18:34.341Z,4.67
2018-07-23T01:21:03.394Z,5.27
2018-07-23T01:23:32.492Z,4.97
2018-07-23T01:26:01.615Z,5.63
2018-07-23T01:28:30.838Z,6.20
2018-07-23T01:30:59.928Z,5.73
2018-07-23T01:33:29.001Z,5.60
2018-07-23T01:35:58.071Z,5.73
2018-07-23T01:38:27.168Z,6.03
2018-07-23T01:40:56.254Z,5.53
2018-07-23T01:43:25.351Z,6.00
2018-07-23T01:45:54.425Z,6.03
2018-07-23T01:48:23.513Z,5.10
2018-07-23T01:50:52.627Z,5.60
2018-07-23T01:53:21.715Z,5.67
2018-07-23T01:55:50.776Z,6.27
2018-07-23T01:58:19.859Z,5.57
2018-07-23T02:00:48.977Z,4.90
2018-07-23T02:03:18.030Z,5.10
2018-07-23T02:05:47.134Z,5.73
2018-07-23T02:08:16.201Z,5.07
2018-07-23T02:10:45.245Z,5.13
2018-07-23T02:13:14.302Z,5.43
2018-07-23T02:15:43.372Z,6.07
2018-07-23T02:18:12.420Z,5.60
2018-07-23T02:20:41.475Z,5.50
2018-07-23T02:23:10.551Z,5.63
2018-07-23T02:25:39.622Z,6.27
2018-07-23T02:28:08.708Z,5.83
2018-07-23T02:30:38.752Z,5.80
2018-07-23T02:33:07.879Z,6.20
2018-07-23T02:35:37.327Z,6.67
2018-07-23T02:38:06.869Z,6.87
2018-07-23T02:40:35.956Z,7.30
2018-07-23T02:43:05.060Z,7.60
2018-07-23T02:45:34.143Z,7.63
2018-07-23T02:48:03.226Z,7.00
2018-07-23T02:50:32.290Z,7.00
2018-07-23T02:53:01.375Z,6.57
2018-07-23T02:55:30.456Z,7.13
2018-07-23T02:57:59.519Z,7.93
2018-07-23T03:00:28.595Z,6.63
2018-07-23T03:02:57.714Z,7.23
2018-07-23T03:05:26.786Z,8.67
2018-07-23T03:07:55.876Z,7.60
2018-07-23T03:10:24.935Z,8.73
2018-07-23T03:12:54.024Z,8.53
2018-07-23T03:15:23.107Z,10.03
2018-07-23T03:17:52.184Z,11.07
2018-07-23T03:20:21.334Z,9.97
2018-07-23T03:22:50.477Z,9.33
2018-07-23T03:25:19.500Z,10.17
2018-07-23T03:27:48.602Z,9.53
2018-07-23T03:30:17.707Z,11.83
2018-07-23T03:32:46.800Z,9.97
2018-07-23T03:35:15.883Z,12.20
2018-07-23T03:37:44.950Z,12.33
2018-07-23T03:40:14.031Z,11.33
2018-07-23T03:42:43.241Z,11.17
2018-07-23T03:45:12.746Z,10.53
2018-07-23T03:47:41.985Z,11.53
2018-07-23T03:50:11.052Z,10.60
2018-07-23T03:52:40.135Z,10.77
2018-07-23T03:55:09.203Z,11.63
2018-07-23T03:57:38.323Z,10.93
2018-07-23T04:00:07.434Z,11.27
2018-07-23T04:02:36.546Z,9.97
2018-07-23T04:05:06.196Z,10.27
2018-07-23T04:07:35.303Z,10.10
2018-07-23T04:10:04.927Z,9.57
2018-07-23T04:12:33.954Z,9.20
2018-07-23T04:15:03.078Z,10.40
2018-07-23T04:17:32.326Z,9.63
2018-07-23T04:20:01.364Z,8.30
2018-07-23T04:22:30.456Z,9.10
2018-07-23T04:24:59.515Z,9.37
2018-07-23T04:27:28.592Z,9.73
2018-07-23T04:29:57.691Z,8.50
2018-07-23T04:32:26.802Z,8.30
2018-07-23T04:34:55.912Z,8.53
2018-07-23T04:37:25.088Z,9.07
2018-07-23T04:39:54.177Z,9.43
2018-07-23T04:42:23.358Z,8.73
2018-07-23T04:44:52.446Z,10.17
2018-07-23T04:54:06.656Z,9.17
2018-07-23T04:56:35.794Z,9.77
2018-07-23T04:59:04.868Z,9.27
2018-07-23T05:01:34.048Z,10.37
2018-07-23T05:04:03.148Z,10.50
2018-07-23T05:06:32.312Z,10.70
2018-07-23T05:09:01.422Z,10.87
2018-07-23T05:11:30.535Z,11.80
2018-07-23T05:13:59.619Z,10.57
2018-07-23T05:16:28.736Z,11.07
2018-07-23T05:18:57.823Z,11.00
2018-07-23T05:21:27.446Z,9.17
2018-07-23T05:23:56.571Z,12.07
2018-07-23T05:26:25.619Z,11.87
2018-07-23T05:28:54.690Z,13.37
2018-07-23T05:31:23.770Z,12.57
2018-07-23T05:33:52.857Z,12.73
2018-07-23T05:36:22.057Z,11.53
2018-07-23T05:38:51.224Z,12.27
2018-07-23T05:41:20.393Z,11.30
2018-07-23T05:43:49.587Z,11.43
2018-07-23T05:46:18.715Z,12.93
2018-07-23T05:48:47.816Z,11.73
2018-07-23T05:51:16.939Z,12.33
2018-07-23T05:53:46.035Z,11.73
2018-07-23T05:56:15.146Z,13.57
2018-07-23T05:58:44.275Z,13.47
2018-07-23T06:01:13.388Z,11.87
2018-07-23T06:03:42.691Z,13.63
2018-07-23T06:06:11.770Z,13.20
2018-07-23T06:08:40.968Z,14.43
2018-07-23T06:11:10.131Z,16.53
2018-07-23T06:13:39.238Z,16.27
2018-07-23T06:16:08.528Z,15.10
2018-07-23T06:18:37.770Z,15.77
2018-07-23T06:21:06.923Z,16.13
2018-07-23T06:23:36.026Z,16.53
2018-07-23T06:26:05.256Z,18.97
2018-07-23T06:28:34.379Z,17.50
2018-07-23T06:31:03.495Z,19.43
2018-07-23T06:33:32.618Z,18.03
2018-07-23T06:36:01.828Z,17.30
2018-07-23T06:38:31.065Z,17.60
2018-07-23T06:41:00.226Z,19.67
2018-07-23T06:43:29.658Z,17.97
2018-07-23T06:45:59.290Z,18.20
2018-07-23T06:48:28.464Z,19.40
2018-07-23T06:50:58.915Z,17.40
2018-07-23T06:53:28.064Z,19.30
2018-07-23T06:55:57.198Z,18.27
2018-07-23T06:58:26.030Z,18.73
2018-07-23T07:00:55.060Z,19.10
2018-07-23T08:04:05.438Z,9.60
2018-07-23T08:06:34.560Z,7.47
2018-07-23T08:09:05.888Z,6.60
2018-07-23T08:11:35.822Z,7.40
2018-07-23T08:14:04.910Z,7.10
2018-07-23T08:16:34.035Z,8.67
2018-07-23T08:26:36.720Z,7.90
2018-07-23T08:29:05.808Z,8.93
